Time;durP1;ratioP1;P1;durP2;ratioP2;P2;SDS_P1;SDS_P2;PMS_P1;PMS_P2;Temp;Humidity;BMP_temperature;BMP_pressure;BME280_temperature;BME280_humidity;BME280_pressure;Samples;Min_cycle;Max_cycle;Signal;HPM_P1;HPM_P2
2022/05/15 00:03:10;;;;;;;0.17;0.17;;;16.50;64.20;;;15.58;50.88;100330.09;10354574;28;96630;-78
2022/05/15 00:08:13;;;;;;;0.43;0.22;;;16.60;63.90;;;15.72;50.30;100333.75;10367240;28;96644;-77
2022/05/15 00:13:19;;;;;;;0.52;0.30;;;16.80;63.50;;;15.82;50.14;100331.50;10302124;28;97144;-80
2022/05/15 00:18:24;;;;;;;0.28;0.25;;;16.80;63.40;;;15.87;50.06;100323.69;10328526;28;96749;-79
2022/05/15 00:23:28;;;;;;;0.20;0.15;;;16.90;63.20;;;15.91;49.81;100330.31;10330863;28;96739;-79
2022/05/15 00:28:31;;;;;;;0.10;0.10;;;17.00;63.00;;;15.98;49.84;100335.72;10369050;28;97521;-79
2022/05/15 00:33:34;;;;;;;1.02;0.20;;;17.00;63.20;;;15.83;51.34;100343.03;10345474;28;98629;-79
2022/05/15 00:38:37;;;;;;;0.40;0.30;;;17.00;63.30;;;15.57;52.46;100347.22;10333540;28;96568;-79
2022/05/15 00:43:47;;;;;;;0.20;0.17;;;16.90;64.10;;;15.23;53.17;100345.31;10342403;28;97785;-79
2022/05/15 00:48:51;;;;;;;1.73;0.52;;;16.70;65.40;;;14.92;54.31;100356.38;10349187;28;97000;-79
2022/05/15 00:54:09;;;;;;;0.32;0.20;;;16.40;67.10;;;14.53;55.45;100341.63;10388419;28;96508;-78
2022/05/15 00:59:17;;;;;;;0.37;0.30;;;16.00;68.70;;;14.17;56.65;100333.59;10312626;28;96819;-79
2022/05/15 01:04:20;;;;;;;0.20;0.10;;;15.60;70.00;;;13.85;57.70;100334.81;10304569;28;98364;-79
2022/05/15 01:09:23;;;;;;;0.10;0.10;;;15.20;71.50;;;13.57;58.86;100343.50;10364347;28;99115;-78
2022/05/15 01:14:27;;;;;;;0.17;0.17;;;14.90;72.50;;;13.38;59.66;100336.88;10327704;28;97897;-79
2022/05/15 01:19:38;;;;;;;0.40;0.30;;;14.70;73.00;;;13.26;60.13;100338.31;10352875;28;98321;-79
2022/05/15 01:24:42;;;;;;;0.10;0.10;;;14.50;73.80;;;13.19;60.24;100347.19;10324591;28;97515;-79
2022/05/15 01:29:47;;;;;;;0.37;0.30;;;14.50;73.30;;;13.05;61.05;100346.97;10345867;28;97330;-78
2022/05/15 01:34:50;;;;;;;1.30;0.23;;;14.40;74.60;;;13.00;61.47;100359.19;10336262;28;96625;-79
2022/05/15 01:39:53;;;;;;;0.17;0.17;;;14.30;75.20;;;12.95;62.08;100357.06;10352905;28;98441;-79
2022/05/15 01:44:57;;;;;;;0.40;0.20;;;14.30;73.60;;;12.91;61.85;100361.13;10326280;28;98126;-78
2022/05/15 01:50:01;;;;;;;0.63;0.10;;;14.20;75.00;;;12.86;62.30;100360.81;10303853;28;96618;-79
2022/05/15 01:55:04;;;;;;;0.33;0.20;;;14.20;75.40;;;12.76;62.83;100365.53;10332996;28;97462;-79
2022/05/15 02:00:13;;;;;;;0.30;0.17;;;14.10;76.30;;;12.66;62.95;100373.81;10344680;28;98737;-79
2022/05/15 02:05:19;;;;;;;0.23;0.20;;;14.00;75.80;;;12.56;63.59;100373.19;10334286;28;96498;-79
2022/05/15 02:10:22;;;;;;;0.60;0.33;;;13.90;76.80;;;12.47;64.15;100372.41;10361342;28;96863;-78
2022/05/15 02:15:26;;;;;;;1.33;0.40;;;13.80;77.80;;;12.39;64.58;100372.44;10328546;28;96614;-78
2022/05/15 02:20:30;;;;;;;0.57;0.40;;;13.70;78.00;;;12.33;65.29;100373.97;10331215;28;96631;-79
2022/05/15 02:25:33;;;;;;;0.40;0.30;;;13.60;79.70;;;12.29;66.49;100371.84;10327875;28;98230;-79
2022/05/15 02:30:36;;;;;;;0.07;0.07;;;13.60;81.40;;;12.20;66.78;100379.06;10301752;28;96618;-79
2022/05/15 02:35:39;;;;;;;0.20;0.20;;;13.50;82.00;;;12.10;67.61;100381.09;10337726;28;96570;-78
2022/05/15 02:40:42;;;;;;;0.10;0.10;;;13.50;81.40;;;12.02;68.22;100381.97;10299067;28;97226;-79
2022/05/15 02:45:46;;;;;;;0.00;0.00;;;13.40;80.30;;;12.05;68.17;100386.09;10336597;28;97928;-77
2022/05/15 02:51:04;;;;;;;0.37;0.33;;;13.40;81.60;;;12.04;67.54;100393.25;10371767;28;96906;-78
2022/05/15 02:56:13;;;;;;;0.47;0.40;;;13.40;81.50;;;11.98;67.63;100388.63;10361439;28;96935;-79
2022/05/15 03:01:16;;;;;;;0.77;0.60;;;13.30;81.40;;;11.91;68.16;100390.31;10313234;28;96712;-79
2022/05/15 03:06:20;;;;;;;0.93;0.20;;;13.30;80.50;;;11.92;68.48;100391.16;10344106;28;96545;-79
2022/05/15 03:11:23;;;;;;;0.33;0.30;;;13.30;80.70;;;11.95;68.25;100396.97;10349646;28;96712;-79
2022/05/15 03:16:28;;;;;;;0.27;0.27;;;13.30;82.90;;;11.87;68.39;100396.97;10265354;28;1370403;-78
2022/05/15 03:21:31;;;;;;;0.63;0.53;;;13.20;84.60;;;11.79;69.20;100396.97;10333770;28;97449;-78
2022/05/15 03:26:42;;;;;;;0.43;0.43;;;13.10;86.50;;;11.72;69.88;100401.34;10336056;28;96577;-78
2022/05/15 03:31:46;;;;;;;0.77;0.75;;;13.10;87.90;;;11.64;70.08;100404.84;10314946;28;96473;-78
2022/05/15 03:36:51;;;;;;;3.73;0.40;;;12.90;88.00;;;11.60;70.26;100416.84;10335941;28;96451;-79
2022/05/15 03:41:54;;;;;;;0.30;0.30;;;12.90;89.00;;;11.60;70.51;100413.34;10336673;28;96606;-78
2022/05/15 03:46:58;;;;;;;0.20;0.13;;;12.90;89.30;;;11.63;70.73;100418.31;10321524;28;96635;-79
2022/05/15 03:52:02;;;;;;;0.27;0.20;;;12.90;90.00;;;11.68;70.87;100416.81;10312337;28;98291;-79
2022/05/15 03:57:05;;;;;;;0.70;0.53;;;13.00;90.40;;;11.71;70.52;100421.81;10319559;28;97517;-79
2022/05/15 04:02:10;;;;;;;0.30;0.30;;;13.00;90.90;;;11.76;70.46;100418.66;10329408;28;97539;-79
2022/05/15 04:07:13;;;;;;;0.47;0.30;;;13.00;90.60;;;11.81;70.64;100426.94;10347548;28;97079;-80
2022/05/15 04:12:16;;;;;;;0.20;0.20;;;13.10;91.00;;;11.88;70.60;100424.47;10320613;28;98474;-79
2022/05/15 04:17:19;;;;;;;0.30;0.30;;;13.10;91.70;;;11.94;71.16;100423.78;10348474;28;99198;-80
2022/05/15 04:22:23;;;;;;;0.33;0.30;;;13.20;92.30;;;12.06;71.46;100430.41;10320172;28;96611;-80
2022/05/15 04:27:26;;;;;;;0.60;0.30;;;13.30;92.60;;;12.25;71.71;100439.81;10315763;28;97376;-80
2022/05/15 04:32:28;;;;;;;0.50;0.47;;;13.40;92.70;;;12.44;71.54;100433.25;10305713;28;96633;-81
2022/05/15 04:37:33;;;;;;;0.20;0.10;;;13.60;93.50;;;12.66;70.97;100442.28;10346330;28;96635;-81
2022/05/15 04:42:36;;;;;;;0.23;0.20;;;13.80;93.10;;;12.89;70.64;100437.78;10351520;28;97351;-80
2022/05/15 04:47:40;;;;;;;0.43;0.33;;;14.00;93.30;;;13.12;70.15;100435.94;10305780;28;96889;-80
2022/05/15 04:52:43;;;;;;;0.30;0.27;;;14.20;93.20;;;13.36;69.76;100439.47;10342482;28;97219;-80
2022/05/15 04:57:45;;;;;;;0.37;0.33;;;14.50;93.30;;;13.58;69.52;100451.97;10369308;28;96708;-80
2022/05/15 05:02:48;;;;;;;0.30;0.20;;;14.70;93.20;;;13.79;69.30;100442.41;10338049;28;97401;-80
2022/05/15 05:07:51;;;;;;;0.30;0.30;;;14.90;93.20;;;13.99;68.82;100440.88;10289617;28;97492;-80
2022/05/15 05:12:54;;;;;;;0.13;0.13;;;15.10;92.70;;;14.20;68.02;100448.94;10318958;28;96621;-80
2022/05/15 05:17:58;;;;;;;0.22;0.13;;;15.20;91.80;;;14.44;66.93;100445.16;10353327;28;96736;-80
2022/05/15 05:23:01;;;;;;;1.95;1.02;;;15.50;91.10;;;14.73;66.13;100443.47;10345705;28;97315;-81
2022/05/15 05:28:04;;;;;;;0.15;0.15;;;15.80;90.80;;;15.02;64.61;100447.06;10323134;28;96649;-80
2022/05/15 05:33:08;;;;;;;0.40;0.40;;;16.10;89.80;;;15.26;63.98;100455.53;10360703;28;96853;-80
2022/05/15 05:38:11;;;;;;;0.30;0.30;;;16.30;88.80;;;15.50;63.44;100450.78;10345927;28;97198;-80
2022/05/15 05:43:14;;;;;;;0.57;0.20;;;16.50;88.10;;;15.74;62.36;100452.25;10290485;28;96616;-80
2022/05/15 05:48:17;;;;;;;0.43;0.30;;;16.80;87.20;;;15.96;61.95;100455.69;10319598;28;98175;-80
2022/05/15 05:53:20;;;;;;;0.13;0.10;;;17.00;86.30;;;16.20;61.51;100447.19;10327377;28;96871;-82
2022/05/15 05:58:23;;;;;;;0.60;0.50;;;17.30;86.10;;;16.48;60.36;100454.31;10331684;28;96596;-81
2022/05/15 06:08:51;;;;;;;0.20;0.20;;;17.80;83.30;;;17.06;58.21;100443.97;10329321;28;96635;-82
2022/05/15 06:13:57;;;;;;;0.37;0.23;;;18.10;81.00;;;17.35;57.33;100445.47;10312272;28;97699;-82
2022/05/15 06:19:00;;;;;;;0.30;0.30;;;18.30;80.70;;;17.64;56.76;100449.59;10317143;28;98368;-83
2022/05/15 06:24:03;;;;;;;0.60;0.38;;;18.60;79.60;;;17.91;55.60;100450.41;10316565;28;98052;-80
2022/05/15 06:29:07;;;;;;;1.55;0.38;;;18.90;78.50;;;18.23;54.99;100451.34;10294779;28;96799;-83
2022/05/15 06:34:10;;;;;;;0.10;0.10;;;19.30;77.40;;;18.56;54.08;100442.34;10308067;28;96669;-83
2022/05/15 06:39:13;;;;;;;0.28;0.20;;;19.60;77.10;;;18.87;53.26;100441.59;10335938;28;96528;-82
2022/05/15 06:44:20;;;;;;;0.40;0.20;;;19.90;75.40;;;19.20;52.31;100438.69;10306117;28;96754;-82
2022/05/15 06:49:24;;;;;;;0.30;0.30;;;20.20;75.10;;;19.55;52.27;100440.88;10308338;28;97047;-82
2022/05/15 06:54:28;;;;;;;0.30;0.30;;;20.50;74.70;;;19.86;51.44;100434.63;10294073;28;96751;-84
2022/05/15 06:59:32;;;;;;;1.10;0.40;;;20.90;73.50;;;20.12;50.46;100428.94;10326258;28;97883;-81
2022/05/15 07:04:35;;;;;;;1.02;0.50;;;21.20;72.60;;;20.40;50.03;100436.50;10301299;28;96468;-82
2022/05/15 07:09:38;;;;;;;0.50;0.30;;;21.40;71.40;;;20.65;48.93;100435.59;10306580;28;96500;-83
2022/05/15 07:14:41;;;;;;;0.10;0.10;;;21.70;70.60;;;20.85;48.54;100431.56;10303881;28;97870;-82
2022/05/15 07:19:44;;;;;;;0.52;0.30;;;21.90;69.70;;;21.12;47.96;100423.06;10319907;28;96528;-82
2022/05/15 07:24:48;;;;;;;0.77;0.30;;;22.20;69.10;;;21.35;47.81;100430.41;10332776;28;96556;-82
2022/05/15 07:29:51;;;;;;;0.60;0.30;;;22.40;68.40;;;21.56;46.89;100424.44;10335049;28;97604;-83
2022/05/15 07:34:54;;;;;;;0.32;0.20;;;22.60;67.10;;;21.76;46.00;100425.97;10333947;28;96521;-83
2022/05/15 07:39:57;;;;;;;1.83;0.63;;;22.80;66.50;;;21.88;44.66;100429.50;10332641;28;96665;-82
2022/05/15 07:45:00;;;;;;;0.82;0.40;;;22.90;65.20;;;22.02;43.85;100428.19;10329784;28;98685;-83
2022/05/15 07:50:05;;;;;;;0.50;0.28;;;23.10;63.20;;;22.14;43.71;100428.22;10332993;28;96751;-83
2022/05/15 07:55:08;;;;;;;0.40;0.20;;;23.20;62.60;;;22.31;42.22;100415.59;10331947;28;96637;-83
2022/05/15 08:00:14;;;;;;;1.17;0.32;;;23.40;61.80;;;22.54;41.91;100421.97;10334575;28;97860;-83
2022/05/15 08:10:46;;;;;;;0.32;0.32;;;23.80;60.00;;;23.15;39.48;100412.25;10283329;28;96650;-82
2022/05/15 08:15:50;;;;;;;1.55;0.20;;;24.00;57.30;;;23.97;38.00;100404.31;10321470;28;96666;-82
2022/05/15 08:26:15;;;;;;;0.40;0.40;;;24.60;56.20;;;24.14;34.61;100414.31;10331584;28;100044;-83
2022/05/15 08:31:19;;;;;;;0.10;0.10;;;24.80;54.50;;;23.96;34.15;100410.00;10303109;28;96545;-83
2022/05/15 08:36:22;;;;;;;0.80;0.25;;;24.80;50.40;;;23.90;34.61;100405.59;10276096;28;96457;-82
2022/05/15 08:41:31;;;;;;;0.52;0.22;;;24.80;50.60;;;23.94;33.32;100412.16;10339559;28;98058;-82
2022/05/15 08:47:14;;;;;;;0.20;0.20;;;24.90;49.80;;;24.01;32.49;100410.06;10333385;28;97088;-83
2022/05/15 08:52:30;;;;;;;3.40;0.52;;;24.90;49.50;;;24.13;31.75;100407.25;10305076;28;96686;-82
2022/05/15 08:57:56;;;;;;;0.93;0.50;;;25.00;48.40;;;24.22;31.03;100409.25;10311914;28;96529;-82
2022/05/15 09:03:25;;;;;;;1.50;0.40;;;25.20;48.00;;;24.34;30.37;100402.88;10347381;28;96835;-83
2022/05/15 09:09:21;;;;;;;0.20;0.20;;;25.40;47.50;;;24.47;31.23;100403.34;10333642;28;96565;-82
2022/05/15 09:14:53;;;;;;;0.22;0.20;;;25.50;46.50;;;24.68;31.82;100395.41;10331261;28;96902;-82
2022/05/15 09:20:00;;;;;;;1.85;0.93;;;25.70;47.00;;;24.76;30.30;100393.03;10280692;28;96775;-83
2022/05/15 09:25:14;;;;;;;0.10;0.10;;;25.80;45.50;;;24.90;30.97;100393.47;10291263;28;96548;-83
2022/05/15 09:30:19;;;;;;;0.47;0.20;;;25.90;46.60;;;25.00;30.48;100390.00;10296052;28;96546;-83
2022/05/15 09:35:36;;;;;;;0.10;0.10;;;26.00;46.40;;;25.15;30.99;100403.75;10305779;28;96531;-80
2022/05/15 09:46:25;;;;;;;0.38;0.38;;;26.10;46.20;;;25.23;30.62;100386.97;10306825;28;96678;-82
2022/05/15 09:51:49;;;;;;;1.85;0.25;;;26.20;45.40;;;25.19;29.83;100391.31;10327792;28;97004;-81
2022/05/15 09:57:25;;;;;;;0.40;0.25;;;26.10;44.70;;;25.17;29.84;100382.56;10331116;28;96496;-82
2022/05/15 10:02:56;;;;;;;0.35;0.30;;;26.10;45.00;;;25.40;30.52;100377.84;10306390;28;97230;-82
2022/05/15 10:08:10;;;;;;;0.20;0.20;;;26.20;46.00;;;25.55;29.41;100377.94;10317772;28;98106;-82
2022/05/15 10:13:40;;;;;;;0.20;0.20;;;26.40;44.30;;;25.67;29.57;100384.00;10327254;28;96754;-82
2022/05/15 10:19:04;;;;;;;0.50;0.13;;;26.50;44.90;;;25.70;29.03;100382.66;10302561;28;96872;-82
2022/05/15 10:24:31;;;;;;;0.40;0.30;;;26.60;44.30;;;25.86;29.67;100381.69;10317225;28;96715;-81
2022/05/15 10:30:07;;;;;;;2.88;0.32;;;26.70;44.90;;;25.96;28.08;100378.19;10328609;28;97346;-83
2022/05/15 10:35:15;;;;;;;1.95;0.65;;;26.70;43.00;;;26.03;28.78;100356.97;10331245;28;96598;-82
2022/05/15 10:40:44;;;;;;;0.20;0.13;;;26.80;44.40;;;26.20;29.09;100359.50;10326910;28;96538;-81
2022/05/15 10:46:44;;;;;;;0.52;0.43;;;27.00;44.60;;;26.23;28.00;100357.06;10314803;28;96834;-81
2022/05/15 10:52:12;;;;;;;1.00;0.30;;;27.10;42.60;;;26.22;28.55;100355.44;10334452;28;96659;-82
2022/05/15 10:57:32;;;;;;;0.50;0.50;;;27.00;43.60;;;26.44;28.55;100354.41;10326745;28;97340;-82
2022/05/15 11:03:11;;;;;;;0.20;0.20;;;27.20;43.60;;;26.51;28.98;100353.09;10362031;28;96571;-82
2022/05/15 11:08:44;;;;;;;0.50;0.20;;;27.30;44.10;;;26.53;27.70;100347.38;10344242;28;96600;-81
2022/05/15 11:14:16;;;;;;;1.13;0.30;;;27.30;42.90;;;26.62;28.45;100348.44;10313031;28;96814;-80
2022/05/15 11:19:22;;;;;;;0.73;0.20;;;27.40;43.30;;;26.63;28.74;100336.50;10335545;28;96857;-82
2022/05/15 11:25:04;;;;;;;0.63;0.30;;;27.40;44.20;;;26.76;28.66;100321.50;10342598;28;96587;-89
2022/05/15 11:30:25;;;;;;;0.40;0.40;;;27.50;44.30;;;26.71;29.03;100322.31;10341821;28;96726;-80
2022/05/15 11:35:33;;;;;;;0.20;0.10;;;27.60;44.10;;;26.75;28.25;100328.03;10337411;28;96666;-92
2022/05/15 11:40:46;;;;;;;0.90;0.30;;;27.60;43.60;;;26.97;28.06;100320.41;10360094;28;96676;-85
2022/05/15 11:45:51;;;;;;;0.10;0.10;;;27.70;42.70;;;27.04;28.67;100315.47;10320368;28;98037;-83
2022/05/15 11:51:16;;;;;;;0.75;0.40;;;27.80;44.30;;;27.12;28.08;100314.16;10325703;28;96742;-87
2022/05/15 11:56:34;;;;;;;2.22;0.73;;;27.80;43.40;;;27.17;27.28;100309.50;10306880;28;97251;-92
2022/05/15 12:01:38;;;;;;;0.10;0.10;;;27.90;42.40;;;27.13;28.11;100300.25;10321159;28;96683;-87
2022/05/15 12:06:56;;;;;;;0.88;0.35;;;27.90;43.70;;;27.17;27.28;100295.88;10338434;28;98155;-85
2022/05/15 12:12:22;;;;;;;0.75;0.40;;;27.90;42.20;;;27.38;26.99;100288.44;10342675;28;97301;-84
2022/05/15 12:17:32;;;;;;;0.73;0.20;;;28.20;42.20;;;27.61;26.36;100288.94;10345680;28;98199;-83
2022/05/15 12:23:13;;;;;;;0.32;0.20;;;28.50;41.20;;;27.79;26.28;100277.41;10302875;28;96506;-85
2022/05/15 12:28:54;;;;;;;0.38;0.30;;;28.80;40.70;;;27.98;26.28;100283.06;10334734;28;97518;-93
2022/05/15 12:34:15;;;;;;;0.32;0.20;;;29.10;41.40;;;28.04;25.29;100267.47;10321205;28;96619;-89
2022/05/15 12:39:29;;;;;;;0.30;0.17;;;29.30;40.00;;;28.24;26.15;100268.13;10311387;28;97399;-96
2022/05/15 12:44:36;;;;;;;0.40;0.20;;;29.60;40.80;;;28.62;26.08;100259.44;10293592;22;98866;-84
2022/05/15 12:49:43;;;;;;;6.13;1.05;;;30.10;40.50;;;28.90;26.20;100247.69;10239223;28;97273;-84
2022/05/15 12:55:11;;;;;;;0.00;0.00;;;30.30;41.20;;;29.04;25.05;100250.59;10234208;28;97591;-84
2022/05/15 13:00:20;;;;;;;0.13;0.13;;;30.60;39.60;;;29.18;24.44;100245.25;10269915;28;96706;-84
2022/05/15 13:05:35;;;;;;;0.20;0.20;;;30.50;39.50;;;29.21;24.24;100242.75;10278104;28;97389;-85
2022/05/15 13:11:02;;;;;;;1.20;0.20;;;30.40;39.50;;;29.35;24.51;100251.09;10246562;28;96696;-84
2022/05/15 13:16:15;;;;;;;0.40;0.17;;;30.40;39.10;;;29.44;23.92;100238.38;10260169;28;98596;-85
2022/05/15 13:21:34;;;;;;;0.10;0.10;;;30.50;38.30;;;29.35;23.62;100233.84;10247188;28;96793;-84
2022/05/15 13:26:43;;;;;;;1.00;0.40;;;30.40;38.60;;;29.25;24.09;100221.09;10247900;28;98230;-84
2022/05/15 13:31:51;;;;;;;1.00;0.20;;;30.00;38.90;;;29.20;23.64;100221.94;10263924;28;97888;-84
2022/05/15 13:36:59;;;;;;;0.20;0.20;;;29.90;38.90;;;29.05;23.31;100214.75;10274976;28;96693;-83
2022/05/15 13:47:29;;;;;;;0.30;0.20;;;29.50;39.70;;;29.03;24.05;100208.75;10253478;28;97448;-83
2022/05/15 13:52:37;;;;;;;0.95;0.30;;;29.40;39.30;;;29.07;23.96;100211.72;10262675;28;96635;-83
2022/05/15 13:57:57;;;;;;;;;;;29.30;38.70;;;28.99;23.41;100204.97;10251930;28;97448;-82
2022/05/15 14:03:26;;;;;;;0.13;0.10;;;29.30;37.90;;;28.71;23.55;100206.56;10276375;28;98387;-83
2022/05/15 14:08:32;;;;;;;0.38;0.15;;;29.10;38.50;;;28.64;24.04;100200.63;10261336;28;97017;-83
2022/05/15 14:13:56;;;;;;;0.45;0.45;;;29.10;39.50;;;28.56;24.24;100186.78;10273041;28;96641;-84
2022/05/15 14:19:18;;;;;;;0.38;0.20;;;29.10;39.60;;;28.61;24.71;100190.28;10249010;28;96502;-84
2022/05/15 14:24:21;;;;;;;1.33;0.30;;;29.10;40.10;;;28.58;25.28;100184.56;10262098;28;97561;-83
2022/05/15 14:29:24;;;;;;;0.35;0.28;;;29.00;40.50;;;28.64;24.33;100186.16;10248033;28;96622;-82
2022/05/15 14:34:28;;;;;;;0.40;0.22;;;29.10;39.80;;;28.50;25.00;100189.56;10212405;28;96728;-83
2022/05/15 14:39:30;;;;;;;0.73;0.28;;;29.00;40.10;;;28.38;24.93;100189.13;10246616;28;97059;-83
2022/05/15 14:44:33;;;;;;;0.20;0.15;;;28.90;40.10;;;28.43;24.67;100177.31;10279818;28;96674;-82
2022/05/15 14:49:38;;;;;;;0.30;0.28;;;29.00;39.70;;;28.31;24.90;100177.69;10270802;28;97553;-82
2022/05/15 14:54:41;;;;;;;1.08;0.43;;;28.80;40.20;;;28.38;25.52;100175.44;10255144;28;97769;-81
2022/05/15 14:59:44;;;;;;;0.20;0.15;;;28.90;40.60;;;28.48;24.59;100175.34;10270808;28;96505;-81
2022/05/15 15:04:48;;;;;;;0.40;0.40;;;29.00;39.50;;;28.34;25.17;100174.38;10273456;28;96640;-81
2022/05/15 15:09:51;;;;;;;0.32;0.32;;;29.00;40.20;;;28.22;25.30;100171.19;10280517;28;97641;-83
2022/05/15 15:14:54;;;;;;;1.25;0.60;;;28.80;40.30;;;28.11;26.07;100164.16;10261416;28;96640;-82
2022/05/15 15:19:57;;;;;;;0.68;0.40;;;28.70;40.70;;;28.20;26.90;100173.38;10270714;28;96734;-82
2022/05/15 15:25:00;;;;;;;0.65;0.43;;;28.80;41.60;;;28.27;25.77;100162.94;10252538;28;96600;-81
2022/05/15 15:30:04;;;;;;;1.15;0.60;;;28.90;40.70;;;28.29;26.12;100177.13;10269029;28;97479;-82
2022/05/15 15:35:09;;;;;;;0.60;0.22;;;29.00;41.00;;;28.37;26.27;100156.59;10261187;28;98111;-82
2022/05/15 15:40:13;;;;;;;0.57;0.25;;;29.10;40.90;;;28.46;26.36;100155.69;10263488;28;96778;-84
2022/05/15 15:45:16;;;;;;;0.38;0.30;;;29.20;40.70;;;28.45;26.04;100156.00;10276053;28;97200;-85
2022/05/15 15:50:20;;;;;;;0.25;0.20;;;29.30;40.40;;;28.53;24.95;100161.63;10268346;28;96589;-84
2022/05/15 15:55:23;;;;;;;0.20;0.20;;;29.40;39.40;;;28.75;24.40;100157.59;10235556;28;98719;-84
2022/05/15 16:00:27;;;;;;;1.02;0.28;;;29.60;39.30;;;28.80;24.85;100154.81;10249048;28;97873;-83
2022/05/15 16:05:30;;;;;;;1.23;0.50;;;29.60;39.40;;;28.89;23.93;100153.06;10233173;28;96866;-83
2022/05/15 16:10:39;;;;;;;0.40;0.40;;;29.60;39.00;;;28.91;24.19;100161.81;10249033;28;96682;-85
2022/05/15 16:15:45;;;;;;;1.50;0.68;;;29.60;38.50;;;28.78;24.40;100157.00;10214581;28;98441;-84
2022/05/15 16:20:52;;;;;;;0.32;0.20;;;29.40;39.60;;;28.80;24.47;100168.50;10247629;28;97282;-84
2022/05/15 16:26:01;;;;;;;0.85;0.28;;;29.30;39.50;;;28.71;24.80;100164.75;10273268;28;96650;-84
2022/05/15 16:31:05;;;;;;;0.32;0.30;;;29.20;39.80;;;28.50;24.84;100156.75;10240412;28;96933;-83
2022/05/15 16:36:09;;;;;;;0.30;0.30;;;29.10;39.50;;;28.26;26.03;100161.31;10274334;28;98272;-83
2022/05/15 16:41:11;;;;;;;1.50;0.50;;;28.80;40.70;;;27.96;25.49;100160.44;10285343;28;98171;-84
2022/05/15 16:46:14;;;;;;;0.30;0.20;;;28.60;40.60;;;27.65;26.58;100165.25;10243836;28;97756;-83
2022/05/15 16:51:17;;;;;;;0.73;0.63;;;28.30;41.20;;;27.15;27.33;100169.03;10261461;28;96698;-84
2022/05/15 16:56:21;;;;;;;0.15;0.10;;;27.90;42.00;;;26.53;27.89;100171.06;10247203;28;96524;-84
2022/05/15 17:01:24;;;;;;;1.33;0.50;;;27.40;42.70;;;25.91;28.80;100176.72;10228143;28;96831;-84
2022/05/15 17:06:28;;;;;;;0.60;0.30;;;26.80;43.00;;;25.36;29.93;100177.06;10227609;28;96514;-84
2022/05/15 17:11:31;;;;;;;0.88;0.60;;;26.30;44.30;;;25.04;31.06;100173.63;10191162;28;99260;-84
2022/05/15 17:16:34;;;;;;;0.57;0.40;;;26.00;44.60;;;24.85;31.71;100186.03;10235971;28;97128;-83
2022/05/15 17:21:38;;;;;;;0.50;0.30;;;25.80;45.70;;;24.61;32.22;100186.41;10225721;28;96590;-85
2022/05/15 17:26:41;;;;;;;0.38;0.20;;;25.60;45.80;;;24.36;32.81;100188.94;10265620;28;97586;-85
2022/05/15 17:37:07;;;;;;;1.08;0.60;;;25.10;46.80;;;23.86;34.24;100196.28;10224485;28;97866;-85
2022/05/15 17:42:10;;;;;;;0.68;0.43;;;24.90;48.10;;;23.62;35.46;100201.19;10239404;28;98140;-85
2022/05/15 17:47:13;;;;;;;0.40;0.40;;;24.70;49.00;;;23.35;35.77;100195.69;10224053;28;97376;-84
2022/05/15 17:52:18;;;;;;;0.40;0.30;;;24.50;49.70;;;23.07;36.58;100204.78;10254896;28;98118;-85
2022/05/15 17:57:21;;;;;;;0.98;0.45;;;24.20;49.00;;;22.83;37.37;100206.03;10245624;28;96705;-85
2022/05/15 18:02:25;;;;;;;0.20;0.10;;;23.90;49.80;;;22.60;37.96;100209.75;10232564;28;96988;-85
2022/05/15 18:07:29;;;;;;;0.30;0.30;;;23.70;50.00;;;22.39;38.66;100214.84;10245347;28;98689;-85
2022/05/15 18:12:33;;;;;;;0.90;0.50;;;23.50;51.60;;;22.15;39.06;100221.47;10267762;28;97471;-84
2022/05/15 18:17:36;;;;;;;2.00;0.95;;;23.30;52.20;;;21.86;40.41;100217.91;10270387;28;98340;-84
2022/05/15 18:22:42;;;;;;;0.40;0.20;;;23.00;52.90;;;21.56;40.49;100229.75;10235401;28;97602;-85
2022/05/15 18:27:45;;;;;;;0.73;0.35;;;22.70;53.20;;;21.30;40.11;100227.59;10253123;28;96775;-84
2022/05/15 18:32:51;;;;;;;0.35;0.30;;;22.50;52.70;;;21.08;40.37;100227.34;10240478;28;98276;-85
2022/05/15 18:37:54;;;;;;;1.60;0.40;;;22.20;53.10;;;20.90;40.83;100240.97;10235322;28;98199;-85
2022/05/15 18:43:04;;;;;;;0.63;0.30;;;22.00;53.90;;;20.68;41.66;100252.34;10249519;28;96647;-85
2022/05/15 18:48:08;;;;;;;1.08;0.80;;;21.80;54.40;;;20.44;42.00;100256.84;10240404;28;98774;-85
2022/05/15 18:58:33;;;;;;;0.50;0.30;;;21.40;54.30;;;20.12;42.23;100268.94;10268018;28;98584;-85
2022/05/15 19:03:36;;;;;;;0.30;0.10;;;21.20;55.00;;;19.94;42.39;100267.94;10242815;28;96763;-85
2022/05/15 19:08:40;;;;;;;0.43;0.30;;;21.10;55.70;;;19.77;42.57;100267.72;10250152;28;96452;-85
2022/05/15 19:13:43;;;;;;;0.30;0.30;;;20.90;55.60;;;19.61;43.33;100271.06;10241052;28;96700;-85
2022/05/15 19:18:46;;;;;;;0.60;0.40;;;20.70;56.50;;;19.44;43.64;100273.50;10236870;28;99161;-85
2022/05/15 19:23:49;;;;;;;0.50;0.32;;;20.50;56.00;;;19.35;43.22;100285.59;10254127;28;96656;-85
2022/05/15 19:28:52;;;;;;;0.60;0.22;;;20.40;55.40;;;19.28;43.23;100287.53;10236179;28;96995;-84
2022/05/15 19:33:54;;;;;;;0.40;0.20;;;20.40;55.70;;;19.17;43.23;100299.84;10226197;28;96686;-85
2022/05/15 19:38:57;;;;;;;0.40;0.10;;;20.30;55.70;;;19.08;43.48;100289.59;10276941;28;96636;-84
2022/05/15 19:44:00;;;;;;;2.10;0.38;;;20.20;55.40;;;18.98;43.52;100287.41;10251802;28;97103;-85
2022/05/15 19:49:03;;;;;;;0.47;0.43;;;20.10;55.60;;;18.88;43.17;100292.44;10223271;28;98736;-84
2022/05/15 19:54:07;;;;;;;0.55;0.30;;;20.00;55.50;;;18.83;43.33;100289.59;10249133;28;96906;-84
2022/05/15 19:59:18;;;;;;;1.60;0.60;;;19.90;55.70;;;18.80;43.15;100282.78;10270797;28;97731;-85
2022/05/15 20:04:22;;;;;;;0.65;0.20;;;19.90;55.30;;;18.79;43.10;100291.91;10231904;28;97531;-85
2022/05/15 20:14:50;;;;;;;0.35;0.32;;;19.80;55.30;;;18.65;44.69;100301.94;10274698;28;97675;-84
2022/05/15 20:19:53;;;;;;;0.60;0.20;;;19.80;56.90;;;18.51;45.92;100307.59;10242990;28;97326;-84
2022/05/15 20:24:56;;;;;;;0.57;0.47;;;19.60;57.80;;;18.33;46.56;100311.03;10257586;28;97977;-85
2022/05/15 20:29:59;;;;;;;0.57;0.35;;;19.50;59.30;;;18.10;47.10;100314.25;10259476;28;96558;-84
2022/05/15 20:35:03;;;;;;;0.52;0.40;;;19.30;59.60;;;17.81;46.68;100321.84;10239331;28;96643;-84
2022/05/15 20:40:06;;;;;;;0.40;0.30;;;19.00;58.80;;;17.65;46.22;100333.81;10258185;28;96492;-84
2022/05/15 20:45:10;;;;;;;0.60;0.40;;;18.80;58.60;;;17.51;46.80;100331.38;10240985;28;97486;-85
2022/05/15 20:50:13;;;;;;;0.20;0.20;;;18.60;59.40;;;17.36;45.64;100336.97;10251095;28;96538;-83
2022/05/15 20:55:16;;;;;;;0.57;0.30;;;18.40;57.80;;;17.31;45.52;100336.78;10223344;28;97576;-84
2022/05/15 21:00:21;;;;;;;0.17;0.17;;;18.40;57.50;;;17.32;45.08;100343.78;10244002;28;98675;-85
2022/05/15 21:05:28;;;;;;;0.13;0.05;;;18.40;57.20;;;17.34;44.55;100337.19;10247788;28;98380;-85
2022/05/15 21:10:32;;;;;;;0.13;0.10;;;18.40;56.90;;;17.36;44.32;100335.13;10236508;28;99038;-84
2022/05/15 21:15:35;;;;;;;0.60;0.32;;;18.40;56.30;;;17.41;44.74;100331.00;10249979;28;97289;-85
2022/05/15 21:20:39;;;;;;;0.17;0.15;;;18.50;56.40;;;17.39;44.36;100325.81;10269730;28;96529;-84
2022/05/15 21:25:42;;;;;;;0.55;0.35;;;18.40;56.40;;;17.38;44.54;100326.84;10246349;28;97390;-85
2022/05/15 21:30:45;;;;;;;0.30;0.25;;;18.40;56.50;;;17.42;44.40;100321.91;10246749;28;96811;-84
2022/05/15 21:35:50;;;;;;;0.17;0.15;;;18.50;56.90;;;17.52;44.27;100323.13;10248772;28;96661;-84
2022/05/15 21:46:22;;;;;;;0.40;0.20;;;18.60;57.30;;;17.49;45.67;100328.91;10273861;28;97257;-84
2022/05/15 21:51:28;;;;;;;1.00;0.50;;;18.50;58.10;;;17.30;46.43;100327.91;10236898;28;96690;-83
2022/05/15 21:56:31;;;;;;;0.43;0.38;;;18.40;58.70;;;17.12;46.70;100335.75;10238032;28;98612;-83